createdAt,value
2022-09-26T00:01:21.694Z,11.48
2022-09-26T00:03:52.412Z,11.52
2022-09-26T00:06:21.637Z,11.60
2022-09-26T00:08:50.274Z,11.05
2022-09-26T00:11:23.359Z,12.70
2022-09-26T00:13:55.992Z,11.95
2022-09-26T00:16:23.830Z,11.45
2022-09-26T00:18:56.702Z,10.73
2022-09-26T00:21:25.241Z,11.35
2022-09-26T00:23:53.772Z,10.73
2022-09-26T00:26:24.318Z,11.80
2022-09-26T00:28:52.107Z,11.35
2022-09-26T00:31:22.781Z,11.35
2022-09-26T00:33:50.204Z,11.10
2022-09-26T00:36:18.225Z,11.13
2022-09-26T00:38:46.494Z,12.23
2022-09-26T00:41:14.667Z,11.45
2022-09-26T00:43:46.611Z,11.93
2022-09-26T00:46:28.685Z,11.40
2022-09-26T00:49:07.835Z,12.48
2022-09-26T00:51:40.166Z,12.07
2022-09-26T00:54:11.453Z,12.63
2022-09-26T00:56:40.263Z,12.70
2022-09-26T00:59:11.686Z,13.80
2022-09-26T01:01:39.046Z,13.98
2022-09-26T01:04:07.947Z,14.82
2022-09-26T01:06:35.979Z,12.98
2022-09-26T01:09:09.245Z,13.40
2022-09-26T01:11:38.725Z,14.40
2022-09-26T01:14:09.081Z,13.20
2022-09-26T01:19:24.691Z,13.57
2022-09-26T01:21:57.719Z,13.32
2022-09-26T01:24:48.166Z,12.95
2022-09-26T01:27:18.053Z,13.90
2022-09-26T01:30:07.143Z,13.63
2022-09-26T01:32:59.971Z,14.13
2022-09-26T01:35:51.360Z,13.65
2022-09-26T01:38:27.390Z,17.05
2022-09-26T01:41:33.085Z,18.02
2022-09-26T01:44:33.795Z,13.07
2022-09-26T01:47:19.703Z,13.73
2022-09-26T01:49:56.121Z,13.07
2022-09-26T01:52:29.175Z,13.77
2022-09-26T01:55:10.617Z,13.60
2022-09-26T01:57:55.210Z,24.95
2022-09-26T02:00:22.913Z,12.27
2022-09-26T02:02:50.893Z,12.23
2022-09-26T02:05:33.753Z,12.43
2022-09-26T02:08:04.137Z,13.48
2022-09-26T02:13:11.589Z,12.95
2022-09-26T02:15:40.699Z,12.48
2022-09-26T02:18:20.885Z,12.38
2022-09-26T02:20:56.330Z,13.00
2022-09-26T02:23:24.491Z,11.90
2022-09-26T02:25:54.906Z,13.77
2022-09-26T02:28:22.285Z,12.40
2022-09-26T02:30:52.658Z,11.48
2022-09-26T02:33:20.062Z,12.63
2022-09-26T02:35:57.673Z,11.70
2022-09-26T02:38:38.905Z,10.38
2022-09-26T02:41:47.223Z,10.75
2022-09-26T02:44:30.837Z,10.30
2022-09-26T02:47:07.617Z,11.35
2022-09-26T02:50:26.517Z,11.00
2022-09-26T02:53:12.916Z,11.15
2022-09-26T02:56:03.556Z,11.60
2022-09-26T02:59:12.419Z,10.52
2022-09-26T03:01:47.438Z,11.32
2022-09-26T03:04:21.196Z,10.75
2022-09-26T03:06:53.732Z,11.27
2022-09-26T03:09:22.635Z,11.10
2022-09-26T03:11:54.268Z,10.80
2022-09-26T03:14:21.385Z,11.53
2022-09-26T03:16:50.873Z,10.40
2022-09-26T03:19:34.082Z,10.27
2022-09-26T03:22:02.571Z,11.02
2022-09-26T03:24:30.785Z,10.63
2022-09-26T03:27:00.657Z,10.82
2022-09-26T03:29:28.533Z,11.00
2022-09-26T03:31:55.835Z,9.68
2022-09-26T03:34:23.766Z,10.38
2022-09-26T03:36:52.738Z,8.60
2022-09-26T03:39:20.080Z,9.80
2022-09-26T03:41:57.665Z,10.07
2022-09-26T03:44:31.595Z,10.57
2022-09-26T03:47:04.872Z,10.07
2022-09-26T03:49:36.405Z,11.02
2022-09-26T03:52:03.983Z,11.23
2022-09-26T03:54:31.479Z,15.05
2022-09-26T03:56:58.860Z,11.50
2022-09-26T03:59:27.121Z,11.05
2022-09-26T04:01:54.691Z,11.20
2022-09-26T04:04:21.919Z,11.75
2022-09-26T04:06:51.344Z,11.70
2022-09-26T04:09:18.794Z,11.38
2022-09-26T04:11:49.846Z,11.20
2022-09-26T04:14:17.783Z,20.67
2022-09-26T04:16:49.058Z,23.75
2022-09-26T04:19:40.317Z,11.43
2022-09-26T04:22:10.152Z,10.90
2022-09-26T04:24:38.359Z,11.85
2022-09-26T04:27:06.531Z,11.23
2022-09-26T04:29:35.203Z,11.70
2022-09-26T04:32:31.659Z,12.07
2022-09-26T04:35:18.226Z,12.27
2022-09-26T04:37:46.417Z,12.32
2022-09-26T04:40:14.806Z,8.70
2022-09-26T04:42:53.213Z,11.20
2022-09-26T04:45:20.296Z,10.32
2022-09-26T04:47:47.852Z,10.35
2022-09-26T04:50:27.276Z,10.60
2022-09-26T04:53:09.184Z,9.75
2022-09-26T04:55:45.272Z,10.88
2022-09-26T04:58:15.418Z,9.05
2022-09-26T05:00:47.711Z,8.82
2022-09-26T05:03:18.105Z,8.65
2022-09-26T05:05:50.606Z,9.50
2022-09-26T05:08:17.766Z,7.50
2022-09-26T05:10:55.846Z,7.68
2022-09-26T05:13:24.216Z,7.50
2022-09-26T05:15:54.803Z,8.15
2022-09-26T05:18:26.483Z,6.97
2022-09-26T05:20:54.498Z,6.97
2022-09-26T05:23:44.952Z,6.05
2022-09-26T05:26:33.044Z,7.47
2022-09-26T05:29:07.769Z,6.63
2022-09-26T05:31:45.172Z,6.50
2022-09-26T05:34:19.175Z,7.03
2022-09-26T05:36:47.931Z,7.03
2022-09-26T05:39:35.785Z,6.90
2022-09-26T05:42:08.280Z,7.90
2022-09-26T05:44:35.511Z,8.57
2022-09-26T05:47:04.963Z,6.25
2022-09-26T05:49:34.997Z,10.15
2022-09-26T05:52:03.992Z,7.85
2022-09-26T05:54:31.261Z,10.23
2022-09-26T05:56:59.751Z,6.45
2022-09-26T05:59:32.392Z,4.70
2022-09-26T06:02:32.617Z,6.03
2022-09-26T06:05:17.225Z,4.97
2022-09-26T06:08:02.661Z,5.90
2022-09-26T06:10:36.069Z,5.22
2022-09-26T06:13:04.511Z,5.35
2022-09-26T06:15:37.828Z,4.72
2022-09-26T06:18:05.535Z,4.70
2022-09-26T06:20:33.557Z,5.35
2022-09-26T06:23:01.838Z,5.43
2022-09-26T06:25:29.747Z,4.40
2022-09-26T06:28:00.921Z,3.60
2022-09-26T06:30:29.944Z,4.07
2022-09-26T06:33:17.320Z,3.60
2022-09-26T06:36:14.266Z,3.50
2022-09-26T06:38:41.656Z,4.05
2022-09-26T06:41:17.496Z,2.85
2022-09-26T06:43:45.484Z,3.60
2022-09-26T06:46:34.213Z,4.28
2022-09-26T06:49:13.307Z,4.28
2022-09-26T06:51:49.229Z,4.75
2022-09-26T06:54:17.994Z,4.18
2022-09-26T06:56:45.237Z,4.45
2022-09-26T06:59:13.080Z,8.40
2022-09-26T07:01:50.522Z,4.82
2022-09-26T07:04:37.035Z,4.78
2022-09-26T07:07:17.095Z,4.88
2022-09-26T07:09:44.299Z,3.90
2022-09-26T07:12:40.480Z,3.17
2022-09-26T07:15:08.305Z,2.45
2022-09-26T07:17:35.941Z,3.50
2022-09-26T07:20:17.993Z,6.20
2022-09-26T07:23:08.746Z,4.13
2022-09-26T07:25:39.206Z,3.30
2022-09-26T07:30:59.038Z,4.38
2022-09-26T07:33:43.083Z,3.88
2022-09-26T07:36:12.417Z,4.10
2022-09-26T07:38:41.277Z,3.65
2022-09-26T07:41:10.970Z,2.90
2022-09-26T07:46:46.436Z,2.67
2022-09-26T07:49:33.391Z,3.05
2022-09-26T07:52:36.108Z,2.63
2022-09-26T07:55:27.024Z,2.42
2022-09-26T07:58:26.359Z,2.97
2022-09-26T08:01:11.571Z,3.03
2022-09-26T08:03:58.603Z,2.43
2022-09-26T08:06:33.205Z,2.90
2022-09-26T08:09:00.681Z,2.40
2022-09-26T08:11:46.948Z,2.15
2022-09-26T08:14:31.103Z,2.40
2022-09-26T08:17:14.374Z,3.00
2022-09-26T08:19:42.346Z,2.47
2022-09-26T08:22:10.234Z,2.67
2022-09-26T08:24:39.310Z,2.38
2022-09-26T08:27:18.446Z,2.65
2022-09-26T08:29:49.545Z,2.40
2022-09-26T08:32:20.708Z,3.20
2022-09-26T08:34:49.729Z,2.50
2022-09-26T08:37:35.380Z,2.03
2022-09-26T08:40:27.241Z,2.00
2022-09-26T08:43:50.322Z,2.15
2022-09-26T08:46:43.671Z,2.00
2022-09-26T08:50:01.739Z,2.15
2022-09-26T08:52:57.016Z,2.00
2022-09-26T08:55:27.489Z,2.20
2022-09-26T09:00:38.554Z,2.20
2022-09-26T09:03:32.498Z,2.40
2022-09-26T09:06:07.741Z,2.63
2022-09-26T09:08:40.686Z,2.78
2022-09-26T09:11:52.174Z,3.78
2022-09-26T09:15:20.443Z,3.97
2022-09-26T09:18:19.023Z,4.63
2022-09-26T09:21:15.911Z,3.27
2022-09-26T09:24:36.900Z,3.40
2022-09-26T09:30:47.132Z,3.00
2022-09-26T09:33:22.809Z,3.40
2022-09-26T09:36:15.335Z,2.50
2022-09-26T09:38:49.225Z,2.20
2022-09-26T09:41:25.039Z,2.10
2022-09-26T09:44:00.070Z,1.73
2022-09-26T09:46:29.834Z,1.77
2022-09-26T09:49:10.925Z,1.85
2022-09-26T09:51:56.244Z,1.95
2022-09-26T09:54:44.260Z,1.90
2022-09-26T09:57:38.437Z,2.25
2022-09-26T10:00:19.606Z,1.90
2022-09-26T10:03:26.709Z,1.70
2022-09-26T10:06:01.193Z,1.95
2022-09-26T10:08:42.858Z,1.98
2022-09-26T10:11:41.817Z,1.83
2022-09-26T10:14:34.316Z,1.45
2022-09-26T10:17:10.553Z,1.67
2022-09-26T10:20:35.320Z,1.70
2022-09-26T10:23:08.436Z,1.77
2022-09-26T10:25:38.353Z,2.08
2022-09-26T10:28:06.267Z,1.65
2022-09-26T10:30:48.973Z,1.63
2022-09-26T10:33:34.987Z,1.95
2022-09-26T10:36:28.209Z,1.70
2022-09-26T10:39:23.743Z,2.67
2022-09-26T10:45:16.849Z,0.95
2022-09-26T10:51:45.664Z,0.98
2022-09-26T10:54:24.219Z,1.15
2022-09-26T10:56:59.313Z,0.80
2022-09-26T10:59:36.406Z,1.80
2022-09-26T11:02:06.341Z,1.30
2022-09-26T11:04:54.715Z,1.38
2022-09-26T11:07:44.143Z,1.20
2022-09-26T11:10:34.246Z,1.20
2022-09-26T11:13:32.534Z,1.05
2022-09-26T11:16:14.555Z,2.30
2022-09-26T11:18:58.996Z,0.98
2022-09-26T11:21:37.496Z,2.03
2022-09-26T11:24:12.880Z,1.90
2022-09-26T11:27:06.450Z,2.08
2022-09-26T11:29:39.795Z,1.30
2022-09-26T11:32:27.681Z,0.90
2022-09-26T11:35:33.881Z,1.27
2022-09-26T11:38:15.071Z,1.60
2022-09-26T11:41:03.760Z,1.30
2022-09-26T11:43:48.560Z,1.50
2022-09-26T11:46:35.869Z,1.65
2022-09-26T11:49:44.366Z,1.75
2022-09-26T11:52:49.183Z,1.50
2022-09-26T11:55:37.350Z,1.45
2022-09-26T11:58:32.299Z,2.17
2022-09-26T12:01:20.897Z,1.50
2022-09-26T12:03:51.555Z,1.98
2022-09-26T12:06:33.726Z,1.25
2022-09-26T12:09:25.727Z,1.67
2022-09-26T12:12:00.217Z,2.00
2022-09-26T12:14:57.518Z,1.65
2022-09-26T12:17:43.420Z,1.58
2022-09-26T12:20:24.639Z,2.10
2022-09-26T12:23:14.489Z,2.00
2022-09-26T12:26:03.060Z,2.50
2022-09-26T12:28:59.198Z,2.10
2022-09-26T12:31:50.903Z,1.50
2022-09-26T12:34:24.185Z,1.63
2022-09-26T12:37:04.181Z,1.88
2022-09-26T12:39:53.679Z,1.30
2022-09-26T12:42:51.728Z,1.80
2022-09-26T12:45:57.261Z,1.40
2022-09-26T12:48:38.927Z,1.75
2022-09-26T12:51:34.924Z,1.50
2022-09-26T12:54:20.068Z,1.48
2022-09-26T12:57:11.658Z,1.65
2022-09-26T12:59:53.518Z,1.73
2022-09-26T13:02:33.795Z,1.85
2022-09-26T13:05:19.897Z,1.65
2022-09-26T13:08:10.020Z,3.13
2022-09-26T13:11:01.612Z,1.92
2022-09-26T13:13:37.458Z,1.80
2022-09-26T13:16:27.324Z,1.90
2022-09-26T13:19:23.080Z,2.78
2022-09-26T13:22:01.837Z,2.08
2022-09-26T13:24:57.808Z,3.22
2022-09-26T13:28:05.221Z,2.63
2022-09-26T13:30:47.040Z,2.40
2022-09-26T13:33:20.917Z,2.65
2022-09-26T13:35:52.135Z,2.30
2022-09-26T13:38:30.503Z,2.67
2022-09-26T13:41:20.657Z,2.63
2022-09-26T13:44:23.536Z,2.33
2022-09-26T13:47:01.902Z,1.98
2022-09-26T13:49:44.420Z,3.47
2022-09-26T13:52:34.405Z,2.22
2022-09-26T13:55:18.668Z,2.88
2022-09-26T13:57:50.315Z,2.15
2022-09-26T14:00:29.370Z,1.70
2022-09-26T14:03:17.876Z,2.00
2022-09-26T14:05:46.670Z,1.70
2022-09-26T14:08:44.961Z,1.80
2022-09-26T14:11:45.851Z,2.00
2022-09-26T14:14:19.404Z,1.77
2022-09-26T14:16:59.844Z,1.45
2022-09-26T14:19:45.399Z,1.70
2022-09-26T14:22:18.883Z,1.52
2022-09-26T14:24:47.386Z,2.10
2022-09-26T14:27:41.550Z,1.70
2022-09-26T14:30:30.046Z,1.45
2022-09-26T14:33:11.450Z,1.50
2022-09-26T14:35:39.116Z,1.70
2022-09-26T14:38:24.713Z,1.60
2022-09-26T14:40:58.231Z,1.60
2022-09-26T14:43:29.132Z,1.70
2022-09-26T14:46:15.809Z,1.77
2022-09-26T14:48:43.668Z,2.28
2022-09-26T14:51:16.053Z,2.53
2022-09-26T14:53:56.985Z,2.40
2022-09-26T14:56:29.599Z,2.08
2022-09-26T14:59:25.118Z,2.45
2022-09-26T15:01:55.255Z,2.97
2022-09-26T15:04:25.888Z,3.63
2022-09-26T15:06:56.662Z,3.03
2022-09-26T15:09:32.315Z,3.38
2022-09-26T15:12:04.118Z,2.33
2022-09-26T15:14:50.112Z,2.97
2022-09-26T15:17:26.272Z,2.67
2022-09-26T15:19:57.194Z,2.90
2022-09-26T15:22:27.209Z,2.25
2022-09-26T15:24:55.924Z,1.80
2022-09-26T15:27:29.542Z,2.70
2022-09-26T15:30:05.558Z,2.50
2022-09-26T15:32:34.493Z,2.15
2022-09-26T15:35:03.715Z,1.92
2022-09-26T15:37:36.601Z,3.75
2022-09-26T15:40:17.075Z,4.05
2022-09-26T15:43:01.564Z,3.65
2022-09-26T15:45:34.119Z,3.33
2022-09-26T15:48:04.557Z,3.50
2022-09-26T15:53:35.448Z,3.70
2022-09-26T15:56:08.399Z,4.20
2022-09-26T15:58:44.366Z,3.85
2022-09-26T16:01:20.261Z,4.10
2022-09-26T16:04:00.151Z,3.80
2022-09-26T16:07:04.008Z,7.43
2022-09-26T16:09:34.061Z,6.80
2022-09-26T16:12:10.484Z,14.40
2022-09-26T16:14:51.184Z,21.05
2022-09-26T16:17:21.678Z,27.13
2022-09-26T16:19:54.339Z,26.67
2022-09-26T16:22:23.052Z,28.17
2022-09-26T16:24:51.914Z,31.20
2022-09-26T16:27:27.086Z,32.60
2022-09-26T16:29:54.126Z,29.50
2022-09-26T16:32:23.256Z,28.13
2022-09-26T16:34:51.126Z,25.48
2022-09-26T16:37:20.349Z,20.48
2022-09-26T16:40:00.553Z,18.95
2022-09-26T16:42:32.997Z,14.70
2022-09-26T16:45:05.053Z,16.92
2022-09-26T16:47:44.288Z,17.52
2022-09-26T16:50:19.750Z,14.05
2022-09-26T16:52:46.748Z,17.50
2022-09-26T16:55:13.964Z,15.85
2022-09-26T16:58:12.921Z,15.82
2022-09-26T17:00:58.697Z,14.38
2022-09-26T17:03:33.083Z,12.32
2022-09-26T17:06:00.641Z,11.15
2022-09-26T17:08:28.825Z,10.30
2022-09-26T17:10:59.983Z,9.23
2022-09-26T17:13:31.351Z,8.02
2022-09-26T17:16:03.705Z,12.30
2022-09-26T17:18:33.449Z,10.63
2022-09-26T17:21:01.598Z,9.35
2022-09-26T17:23:45.566Z,7.97
2022-09-26T17:26:22.229Z,8.88
2022-09-26T17:28:51.176Z,9.20
2022-09-26T17:31:20.427Z,7.93
2022-09-26T17:33:51.669Z,9.63
2022-09-26T17:36:24.810Z,8.10
2022-09-26T17:38:52.073Z,8.95
2022-09-26T17:41:19.046Z,9.35
2022-09-26T17:43:46.118Z,9.00
2022-09-26T17:46:16.251Z,10.32
2022-09-26T17:51:14.533Z,9.85
2022-09-26T17:53:50.014Z,10.05
2022-09-26T17:56:18.032Z,11.23
2022-09-26T17:58:47.764Z,10.32
2022-09-26T18:01:25.666Z,10.13
2022-09-26T18:03:57.553Z,10.93
2022-09-26T18:06:31.827Z,10.93
2022-09-26T18:09:05.851Z,14.98
2022-09-26T18:11:34.777Z,15.20
2022-09-26T18:14:04.792Z,15.98
2022-09-26T18:16:32.080Z,17.50
2022-09-26T18:19:06.847Z,28.30
2022-09-26T18:21:47.901Z,35.85
2022-09-26T18:26:51.460Z,14.25
2022-09-26T18:29:34.557Z,14.00
2022-09-26T18:32:06.751Z,8.80
2022-09-26T18:34:34.354Z,10.45
2022-09-26T18:37:04.389Z,8.65
2022-09-26T18:42:24.743Z,8.07
2022-09-26T18:45:01.518Z,10.07
2022-09-26T18:47:36.490Z,7.82
2022-09-26T18:50:06.065Z,7.63
2022-09-26T18:52:33.640Z,8.50
2022-09-26T18:55:27.619Z,8.73
2022-09-26T18:58:13.470Z,8.05
2022-09-26T19:00:45.109Z,9.45
2022-09-26T19:03:12.254Z,8.73
2022-09-26T19:05:39.812Z,8.57
2022-09-26T19:08:09.838Z,8.02
2022-09-26T19:10:40.065Z,8.02
2022-09-26T19:13:10.183Z,8.70
2022-09-26T19:15:37.297Z,8.68
2022-09-26T19:18:08.298Z,8.10
2022-09-26T19:20:36.243Z,14.20
2022-09-26T19:23:16.897Z,12.07
2022-09-26T19:25:44.079Z,17.02
2022-09-26T19:28:25.051Z,19.17
2022-09-26T19:30:53.061Z,17.25
2022-09-26T19:33:21.853Z,14.15
2022-09-26T19:35:49.572Z,11.68
2022-09-26T19:38:22.808Z,9.40
2022-09-26T19:40:52.012Z,7.97
2022-09-26T19:43:21.322Z,7.70
2022-09-26T19:45:52.470Z,12.88
2022-09-26T19:48:24.337Z,16.40
2022-09-26T19:50:52.733Z,8.57
2022-09-26T19:53:22.450Z,8.90
2022-09-26T19:55:53.894Z,8.63
2022-09-26T19:58:22.038Z,8.30
2022-09-26T20:00:55.742Z,8.55
2022-09-26T20:03:25.657Z,8.90
2022-09-26T20:06:18.933Z,8.95
2022-09-26T20:08:46.119Z,8.52
2022-09-26T20:11:13.692Z,8.65
2022-09-26T20:13:59.308Z,9.40
2022-09-26T20:16:26.716Z,8.85
2022-09-26T20:22:43.381Z,9.50
2022-09-26T20:25:33.616Z,8.90
2022-09-26T20:28:01.020Z,9.05
2022-09-26T20:30:48.946Z,9.55
2022-09-26T20:33:23.352Z,9.93
2022-09-26T20:36:54.308Z,10.57
2022-09-26T20:39:26.180Z,8.80
2022-09-26T20:41:54.092Z,8.90
2022-09-26T20:44:27.518Z,8.93
2022-09-26T20:46:58.871Z,8.65
2022-09-26T20:49:30.941Z,8.52
2022-09-26T20:52:02.558Z,9.30
2022-09-26T20:54:32.744Z,8.88
2022-09-26T20:57:02.881Z,8.80
2022-09-26T20:59:30.260Z,8.60
2022-09-26T21:01:57.882Z,8.95
2022-09-26T21:04:32.257Z,58.40
2022-09-26T21:06:59.236Z,10.07
2022-09-26T21:09:26.252Z,7.75
2022-09-26T21:11:53.618Z,8.50
2022-09-26T21:14:23.866Z,7.70
2022-09-26T21:16:52.910Z,7.82
2022-09-26T21:19:25.067Z,7.43
2022-09-26T21:22:12.435Z,7.10
2022-09-26T21:24:49.315Z,7.00
2022-09-26T21:27:22.846Z,7.22
2022-09-26T21:29:50.343Z,7.47
2022-09-26T21:32:31.173Z,7.13
2022-09-26T21:35:03.863Z,7.03
2022-09-26T21:37:32.233Z,6.80
2022-09-26T21:40:10.759Z,6.15
2022-09-26T21:42:43.125Z,6.53
2022-09-26T21:45:16.032Z,17.23
2022-09-26T21:47:44.918Z,61.13
2022-09-26T21:50:13.270Z,43.90
2022-09-26T21:52:46.474Z,40.70
2022-09-26T21:55:24.010Z,31.35
2022-09-26T21:57:53.117Z,28.05
2022-09-26T22:00:21.934Z,31.88
2022-09-26T22:02:52.723Z,44.83
2022-09-26T22:05:29.257Z,39.60
2022-09-26T22:07:57.785Z,31.00
2022-09-26T22:10:53.774Z,24.00
2022-09-26T22:13:25.207Z,26.55
2022-09-26T22:15:54.799Z,22.13
2022-09-26T22:18:53.196Z,23.40
2022-09-26T22:21:20.725Z,20.67
2022-09-26T22:23:53.874Z,22.63
2022-09-26T22:26:25.111Z,23.13
2022-09-26T22:32:56.564Z,23.98
2022-09-26T22:35:24.305Z,25.38
2022-09-26T22:37:52.021Z,29.27
2022-09-26T22:40:19.202Z,28.77
2022-09-26T22:42:46.273Z,18.67
2022-09-26T22:45:13.412Z,23.58
2022-09-26T22:47:40.918Z,34.25
2022-09-26T22:50:08.452Z,27.83
2022-09-26T22:52:35.912Z,28.80
2022-09-26T22:55:03.302Z,27.38
2022-09-26T22:57:32.832Z,24.80
2022-09-26T23:00:02.014Z,24.92
2022-09-26T23:02:32.401Z,23.13
2022-09-26T23:04:59.972Z,23.85
2022-09-26T23:07:50.360Z,22.10
2022-09-26T23:10:22.328Z,18.67
2022-09-26T23:12:50.734Z,19.30
2022-09-26T23:15:18.744Z,22.67
2022-09-26T23:17:48.010Z,16.88
2022-09-26T23:20:16.112Z,15.02
2022-09-26T23:22:43.318Z,14.90
2022-09-26T23:25:17.863Z,13.30
2022-09-26T23:27:47.446Z,21.95
2022-09-26T23:30:14.644Z,18.30
2022-09-26T23:32:41.618Z,13.65
2022-09-26T23:35:09.254Z,10.77
2022-09-26T23:37:36.242Z,10.85
2022-09-26T23:40:03.950Z,12.30
2022-09-26T23:42:30.988Z,12.02
2022-09-26T23:44:58.081Z,11.88
2022-09-26T23:47:25.675Z,16.27
2022-09-26T23:49:52.606Z,17.33
2022-09-26T23:52:19.537Z,21.35
2022-09-26T23:54:47.405Z,19.77
2022-09-26T23:57:14.606Z,20.00
2022-09-26T23:59:41.723Z,19.17
